createdAt,value
2017-09-06T00:00:08.205Z,16.9
2017-09-06T00:00:48.778Z,16.89
2017-09-06T00:01:29.375Z,16.9
2017-09-06T00:02:09.946Z,16.96
2017-09-06T00:02:50.515Z,16.91
2017-09-06T00:03:31.105Z,16.93
2017-09-06T00:04:11.700Z,16.97
2017-09-06T00:04:52.309Z,16.96
2017-09-06T00:05:32.879Z,16.97
2017-09-06T00:06:13.461Z,16.97
2017-09-06T00:06:54.042Z,16.99
2017-09-06T00:07:34.612Z,16.9
2017-09-06T00:08:15.192Z,16.94
2017-09-06T00:08:55.786Z,16.99
2017-09-06T00:09:36.351Z,16.94
2017-09-06T00:10:16.940Z,16.96
2017-09-06T00:10:57.556Z,16.96
2017-09-06T00:11:38.162Z,16.87
2017-09-06T00:12:18.712Z,16.94
2017-09-06T00:12:59.294Z,16.87
2017-09-06T00:13:39.861Z,16.96
2017-09-06T00:14:20.448Z,16.86
2017-09-06T00:15:01.014Z,16.84
2017-09-06T00:15:41.596Z,16.91
2017-09-06T00:16:22.161Z,16.79
2017-09-06T00:17:02.744Z,16.79
2017-09-06T00:17:43.324Z,16.83
2017-09-06T00:18:23.902Z,16.79
2017-09-06T00:19:04.465Z,16.84
2017-09-06T00:19:45.059Z,16.83
2017-09-06T00:20:25.628Z,16.9
2017-09-06T00:21:06.193Z,16.86
2017-09-06T00:21:46.774Z,16.84
2017-09-06T00:22:27.351Z,16.81
2017-09-06T00:23:07.914Z,16.86
2017-09-06T00:23:48.488Z,16.79
2017-09-06T00:24:29.074Z,16.78
2017-09-06T00:25:12.346Z,16.84
2017-09-06T00:25:52.921Z,16.79
2017-09-06T00:26:33.489Z,16.79
2017-09-06T00:27:14.082Z,16.84
2017-09-06T00:27:54.657Z,16.79
2017-09-06T00:28:35.238Z,16.84
2017-09-06T00:29:15.814Z,16.81
2017-09-06T00:29:56.411Z,16.86
2017-09-06T00:30:36.999Z,16.87
2017-09-06T00:31:17.619Z,16.84
2017-09-06T00:31:58.196Z,16.9
2017-09-06T00:32:38.771Z,16.9
2017-09-06T00:33:19.354Z,16.94
2017-09-06T00:33:59.919Z,16.86
2017-09-06T00:34:40.491Z,16.86
2017-09-06T00:35:21.062Z,16.94
2017-09-06T00:36:01.653Z,16.94
2017-09-06T00:36:42.221Z,16.83
2017-09-06T00:37:22.817Z,16.79
2017-09-06T00:38:03.374Z,16.83
2017-09-06T00:38:43.977Z,16.89
2017-09-06T00:39:24.576Z,16.94
2017-09-06T00:40:05.151Z,16.84
2017-09-06T00:40:45.727Z,16.87
2017-09-06T00:41:26.329Z,16.84
2017-09-06T00:42:06.943Z,16.81
2017-09-06T00:42:47.518Z,16.89
2017-09-06T00:43:28.097Z,16.78
2017-09-06T00:44:08.673Z,16.86
2017-09-06T00:44:49.288Z,16.86
2017-09-06T00:45:29.874Z,16.79
2017-09-06T00:46:10.465Z,16.84
2017-09-06T00:46:51.029Z,16.84
2017-09-06T00:47:31.621Z,16.79
2017-09-06T00:48:12.204Z,16.81
2017-09-06T00:48:52.795Z,16.79
2017-09-06T00:49:33.394Z,16.81
2017-09-06T00:50:13.990Z,16.79
2017-09-06T00:50:54.593Z,16.93
2017-09-06T00:51:35.164Z,16.83
2017-09-06T00:52:15.745Z,16.79
2017-09-06T00:52:56.328Z,16.79
2017-09-06T00:53:36.919Z,16.84
2017-09-06T00:54:17.504Z,16.87
2017-09-06T00:54:58.085Z,16.81
2017-09-06T00:55:38.672Z,16.84
2017-09-06T00:56:19.313Z,16.86
2017-09-06T00:56:59.868Z,16.74
2017-09-06T00:57:40.460Z,16.79
2017-09-06T00:58:21.041Z,16.76
2017-09-06T00:59:01.630Z,16.84
2017-09-06T00:59:42.216Z,16.76
2017-09-06T01:00:22.799Z,16.76
2017-09-06T01:01:03.414Z,16.81
2017-09-06T01:01:44.002Z,16.76
2017-09-06T01:02:24.577Z,16.79
2017-09-06T01:03:05.146Z,16.76
2017-09-06T01:03:45.721Z,16.83
2017-09-06T01:04:26.311Z,16.79
2017-09-06T01:05:06.901Z,16.79
2017-09-06T01:05:47.475Z,16.79
2017-09-06T01:06:28.078Z,16.79
2017-09-06T01:07:08.652Z,16.83
2017-09-06T01:07:49.226Z,16.74
2017-09-06T01:08:29.820Z,16.79
2017-09-06T01:09:10.433Z,16.81
2017-09-06T01:09:51.008Z,16.79
2017-09-06T01:10:31.583Z,16.79
2017-09-06T01:11:12.184Z,16.74
2017-09-06T01:11:52.770Z,16.79
2017-09-06T01:12:33.369Z,16.79
2017-09-06T01:13:13.953Z,16.79
2017-09-06T01:13:54.527Z,16.74
2017-09-06T01:14:35.142Z,16.79
2017-09-06T01:15:15.695Z,16.71
2017-09-06T01:15:56.279Z,16.79
2017-09-06T01:16:36.917Z,16.69
2017-09-06T01:17:17.489Z,16.74
2017-09-06T01:17:58.061Z,16.72
2017-09-06T01:18:38.638Z,16.83
2017-09-06T01:19:19.214Z,16.79
2017-09-06T01:19:59.791Z,16.69
2017-09-06T01:20:40.381Z,16.69
2017-09-06T01:21:20.960Z,16.69
2017-09-06T01:22:01.541Z,16.71
2017-09-06T01:22:42.104Z,16.74
2017-09-06T01:23:22.671Z,16.69
2017-09-06T01:24:03.251Z,16.64
2017-09-06T01:24:43.836Z,16.64
2017-09-06T01:25:24.425Z,16.64
2017-09-06T01:26:05.007Z,16.72
2017-09-06T01:26:45.579Z,16.61
2017-09-06T01:27:26.176Z,16.66
2017-09-06T01:28:06.750Z,16.71
2017-09-06T01:28:47.362Z,16.74
2017-09-06T01:29:27.977Z,16.61
2017-09-06T01:30:08.548Z,16.68
2017-09-06T01:30:49.159Z,16.61
2017-09-06T01:31:29.745Z,16.69
2017-09-06T01:32:10.335Z,16.68
2017-09-06T01:32:50.939Z,16.65
2017-09-06T01:33:31.578Z,16.68
2017-09-06T01:34:12.166Z,16.61
2017-09-06T01:34:52.737Z,16.71
2017-09-06T01:35:33.314Z,16.71
2017-09-06T01:36:13.900Z,16.69
2017-09-06T01:36:54.473Z,16.66
2017-09-06T01:37:35.043Z,16.76
2017-09-06T01:38:15.608Z,16.72
2017-09-06T01:38:56.206Z,16.71
2017-09-06T01:39:36.756Z,16.74
2017-09-06T01:40:17.332Z,16.69
2017-09-06T01:40:57.918Z,16.74
2017-09-06T01:41:38.499Z,16.66
2017-09-06T01:42:19.106Z,16.68
2017-09-06T01:42:59.675Z,16.72
2017-09-06T01:43:40.249Z,16.68
2017-09-06T01:44:20.839Z,16.74
2017-09-06T01:45:01.438Z,16.65
2017-09-06T01:45:42.043Z,16.72
2017-09-06T01:46:22.627Z,16.71
2017-09-06T01:47:03.203Z,16.66
2017-09-06T01:47:43.797Z,16.69
2017-09-06T01:48:24.363Z,16.65
2017-09-06T01:49:04.927Z,16.74
2017-09-06T01:49:45.502Z,16.74
2017-09-06T01:50:26.093Z,16.71
2017-09-06T01:51:06.668Z,16.69
2017-09-06T01:51:47.232Z,16.74
2017-09-06T01:52:27.813Z,16.64
2017-09-06T01:53:08.387Z,16.72
2017-09-06T01:53:48.953Z,16.66
2017-09-06T01:54:29.538Z,16.71
2017-09-06T01:55:10.121Z,16.72
2017-09-06T01:55:50.738Z,16.76
2017-09-06T01:56:31.306Z,16.68
2017-09-06T01:57:11.891Z,16.65
2017-09-06T01:57:52.476Z,16.72
2017-09-06T01:58:33.046Z,16.69
2017-09-06T01:59:13.645Z,16.74
2017-09-06T01:59:54.226Z,16.75
2017-09-06T02:00:34.807Z,16.69
2017-09-06T02:01:15.378Z,16.78
2017-09-06T02:01:55.977Z,16.69
2017-09-06T02:02:36.591Z,16.69
2017-09-06T02:03:17.163Z,16.61
2017-09-06T02:03:57.788Z,16.71
2017-09-06T02:04:38.371Z,16.65
2017-09-06T02:05:18.956Z,16.71
2017-09-06T02:05:59.541Z,16.86
2017-09-06T02:06:40.108Z,16.76
2017-09-06T02:07:20.677Z,16.72
2017-09-06T02:08:01.290Z,16.74
2017-09-06T02:08:41.860Z,16.71
2017-09-06T02:09:22.444Z,16.69
2017-09-06T02:10:03.056Z,16.74
2017-09-06T02:10:43.666Z,16.72
2017-09-06T02:11:24.252Z,16.79
2017-09-06T02:12:04.822Z,16.71
2017-09-06T02:12:45.397Z,16.76
2017-09-06T02:13:25.986Z,16.79
2017-09-06T02:14:06.552Z,16.76
2017-09-06T02:14:47.167Z,16.79
2017-09-06T02:15:27.714Z,16.72
2017-09-06T02:16:08.303Z,16.76
2017-09-06T02:16:48.900Z,16.71
2017-09-06T02:17:29.492Z,16.69
2017-09-06T02:18:10.102Z,16.76
2017-09-06T02:18:50.720Z,16.75
2017-09-06T02:19:31.303Z,16.76
2017-09-06T02:20:11.876Z,16.74
2017-09-06T02:20:52.473Z,16.75
2017-09-06T02:21:33.041Z,16.79
2017-09-06T02:22:13.647Z,16.72
2017-09-06T02:22:54.182Z,16.68
2017-09-06T02:23:34.766Z,16.74
2017-09-06T02:24:15.346Z,16.79
2017-09-06T02:24:55.920Z,16.74
2017-09-06T02:25:36.498Z,16.78
2017-09-06T02:26:17.153Z,16.72
2017-09-06T02:26:57.736Z,16.89
2017-09-06T02:27:38.301Z,16.72
2017-09-06T02:28:18.882Z,16.76
2017-09-06T02:28:59.459Z,16.84
2017-09-06T02:29:40.044Z,16.71
2017-09-06T02:30:20.632Z,16.72
2017-09-06T02:31:01.222Z,16.72
2017-09-06T02:31:41.785Z,16.74
2017-09-06T02:32:22.396Z,16.71
2017-09-06T02:33:02.965Z,16.72
2017-09-06T02:33:43.541Z,16.74
2017-09-06T02:34:24.131Z,16.81
2017-09-06T02:35:04.734Z,16.76
2017-09-06T02:35:45.302Z,16.76
2017-09-06T02:36:25.884Z,16.68
2017-09-06T02:37:06.481Z,16.79
2017-09-06T02:37:47.064Z,16.65
2017-09-06T02:38:27.641Z,16.79
2017-09-06T02:39:08.255Z,16.71
2017-09-06T02:39:48.848Z,16.66
2017-09-06T02:40:29.468Z,16.66
2017-09-06T02:41:10.044Z,16.68
2017-09-06T02:41:50.632Z,16.68
2017-09-06T02:42:31.225Z,16.66
2017-09-06T02:43:11.785Z,16.69
2017-09-06T02:43:52.354Z,16.65
2017-09-06T02:44:32.934Z,16.69
2017-09-06T02:45:13.497Z,16.71
2017-09-06T02:45:54.085Z,16.72
2017-09-06T02:46:34.681Z,16.72
2017-09-06T02:47:15.467Z,16.65
2017-09-06T02:47:56.006Z,16.75
2017-09-06T02:48:36.571Z,16.64
2017-09-06T02:49:17.166Z,16.65
2017-09-06T02:49:57.784Z,16.68
2017-09-06T02:50:38.349Z,16.68
2017-09-06T02:51:18.950Z,16.68
2017-09-06T02:51:59.507Z,16.75
2017-09-06T02:52:40.096Z,16.66
2017-09-06T02:53:20.677Z,16.61
2017-09-06T02:54:01.293Z,16.65
2017-09-06T02:54:41.859Z,16.56
2017-09-06T02:55:22.428Z,16.66
2017-09-06T02:56:03.017Z,16.6
2017-09-06T02:56:43.601Z,16.58
2017-09-06T02:57:24.183Z,16.61
2017-09-06T02:58:04.803Z,16.61
2017-09-06T02:58:45.372Z,16.65
2017-09-06T02:59:25.972Z,16.61
2017-09-06T03:00:06.548Z,16.6
2017-09-06T03:00:47.139Z,16.61
2017-09-06T03:01:27.712Z,16.6
2017-09-06T03:02:08.291Z,16.64
2017-09-06T03:02:48.868Z,16.58
2017-09-06T03:03:29.444Z,16.64
2017-09-06T03:04:10.049Z,16.6
2017-09-06T03:04:50.626Z,16.65
2017-09-06T03:05:31.210Z,16.6
2017-09-06T03:06:11.777Z,16.66
2017-09-06T03:06:52.347Z,16.69
2017-09-06T03:07:32.951Z,16.58
2017-09-06T03:08:13.567Z,16.58
2017-09-06T03:08:54.154Z,16.61
2017-09-06T03:09:34.739Z,16.61
2017-09-06T03:10:15.317Z,16.6
2017-09-06T03:10:55.893Z,16.61
2017-09-06T03:11:36.497Z,16.68
2017-09-06T03:12:17.086Z,16.66
2017-09-06T03:12:57.677Z,16.65
2017-09-06T03:13:38.308Z,16.61
2017-09-06T03:14:18.892Z,16.66
2017-09-06T03:14:59.489Z,16.58
2017-09-06T03:15:40.084Z,16.61
2017-09-06T03:16:20.686Z,16.64
2017-09-06T03:17:01.272Z,16.64
2017-09-06T03:17:41.866Z,16.61
2017-09-06T03:18:22.476Z,16.57
2017-09-06T03:19:03.067Z,16.6
2017-09-06T03:19:43.675Z,16.65
2017-09-06T03:20:24.293Z,16.61
2017-09-06T03:21:04.876Z,16.57
2017-09-06T03:21:45.470Z,16.66
2017-09-06T03:22:26.031Z,16.58
2017-09-06T03:23:06.594Z,16.6
2017-09-06T03:23:47.172Z,16.6
2017-09-06T03:24:27.736Z,16.6
2017-09-06T03:25:08.319Z,16.61
2017-09-06T03:25:48.904Z,16.6
2017-09-06T03:26:29.511Z,16.72
2017-09-06T03:27:10.086Z,16.56
2017-09-06T03:27:50.668Z,16.6
2017-09-06T03:28:31.245Z,16.65
2017-09-06T03:29:11.839Z,16.66
2017-09-06T03:29:52.417Z,16.58
2017-09-06T03:30:33.003Z,16.65
2017-09-06T03:31:13.638Z,16.58
2017-09-06T03:31:54.242Z,16.65
2017-09-06T03:32:34.836Z,16.65
2017-09-06T03:33:15.418Z,16.64
2017-09-06T03:33:56.006Z,16.57
2017-09-06T03:34:36.571Z,16.64
2017-09-06T03:35:17.137Z,16.6
2017-09-06T03:35:57.737Z,16.6
2017-09-06T03:36:38.324Z,16.58
2017-09-06T03:37:18.886Z,16.54
2017-09-06T03:37:59.461Z,16.56
2017-09-06T03:38:40.044Z,16.57
2017-09-06T03:39:20.691Z,16.54
2017-09-06T03:40:01.255Z,16.53
2017-09-06T03:40:41.839Z,16.57
2017-09-06T03:41:22.462Z,16.58
2017-09-06T03:42:03.033Z,16.57
2017-09-06T03:42:43.657Z,16.51
2017-09-06T03:43:24.314Z,16.51
2017-09-06T03:44:04.869Z,16.54
2017-09-06T03:44:45.468Z,16.56
2017-09-06T03:45:26.032Z,16.51
2017-09-06T03:46:06.643Z,16.53
2017-09-06T03:46:47.321Z,16.54
2017-09-06T03:47:27.907Z,16.53
2017-09-06T03:48:08.508Z,16.57
2017-09-06T03:48:49.096Z,16.54
2017-09-06T03:49:29.863Z,16.51
2017-09-06T03:50:10.441Z,16.5
2017-09-06T03:50:51.076Z,16.6
2017-09-06T03:51:31.679Z,16.5
2017-09-06T03:52:12.320Z,16.5
2017-09-06T03:52:52.971Z,16.47
2017-09-06T03:53:33.559Z,16.47
2017-09-06T03:54:14.153Z,16.46
2017-09-06T03:54:54.748Z,16.43
2017-09-06T03:55:35.325Z,16.46
2017-09-06T03:56:15.900Z,16.41
2017-09-06T03:56:56.471Z,16.47
2017-09-06T03:57:37.044Z,16.46
2017-09-06T03:58:17.609Z,16.39
2017-09-06T03:58:58.198Z,16.5
2017-09-06T03:59:38.812Z,16.46
2017-09-06T04:00:19.400Z,16.46
2017-09-06T04:00:59.991Z,16.46
2017-09-06T04:01:40.573Z,16.41
2017-09-06T04:02:21.155Z,16.49
2017-09-06T04:03:01.742Z,16.41
2017-09-06T04:03:42.340Z,16.47
2017-09-06T04:04:22.913Z,16.46
2017-09-06T04:05:03.496Z,16.47
2017-09-06T04:05:44.093Z,16.43
2017-09-06T04:06:24.677Z,16.49
2017-09-06T04:07:05.258Z,16.46
2017-09-06T04:07:45.842Z,16.47
2017-09-06T04:08:26.440Z,16.49
2017-09-06T04:09:07.014Z,16.47
2017-09-06T04:09:47.595Z,16.5
2017-09-06T04:10:28.201Z,16.51
2017-09-06T04:11:08.775Z,16.5
2017-09-06T04:11:49.365Z,16.47
2017-09-06T04:12:29.961Z,16.43
2017-09-06T04:13:10.540Z,16.5
2017-09-06T04:13:51.101Z,16.46
2017-09-06T04:14:31.714Z,16.47
2017-09-06T04:15:12.272Z,16.43
2017-09-06T04:15:52.845Z,16.47
2017-09-06T04:16:33.431Z,16.47
2017-09-06T04:17:14.027Z,16.51
2017-09-06T04:17:54.618Z,16.46
2017-09-06T04:18:35.193Z,16.43
2017-09-06T04:19:15.790Z,16.54
2017-09-06T04:19:56.357Z,16.49
2017-09-06T04:20:36.936Z,16.56
2017-09-06T04:21:17.519Z,16.51
2017-09-06T04:21:58.089Z,16.53
2017-09-06T04:22:38.670Z,16.54
2017-09-06T04:23:19.257Z,16.54
2017-09-06T04:23:59.848Z,16.56
2017-09-06T04:24:40.429Z,16.53
2017-09-06T04:25:21.006Z,16.51
2017-09-06T04:26:01.602Z,16.5
2017-09-06T04:26:42.163Z,16.5
2017-09-06T04:27:22.758Z,16.5
2017-09-06T04:28:03.326Z,16.51
2017-09-06T04:28:43.922Z,16.49
2017-09-06T04:29:24.510Z,16.54
2017-09-06T04:30:05.112Z,16.51
2017-09-06T04:30:45.674Z,16.5
2017-09-06T04:31:26.255Z,16.51
2017-09-06T04:32:06.834Z,16.39
2017-09-06T04:32:47.406Z,16.47
2017-09-06T04:33:27.989Z,16.5
2017-09-06T04:34:08.585Z,16.47
2017-09-06T04:34:49.147Z,16.53
2017-09-06T04:35:29.748Z,16.47
2017-09-06T04:36:10.357Z,16.5
2017-09-06T04:36:50.941Z,16.5
2017-09-06T04:37:31.534Z,16.46
2017-09-06T04:38:12.106Z,16.35
2017-09-06T04:38:52.674Z,16.47
2017-09-06T04:39:33.265Z,16.47
2017-09-06T04:40:13.830Z,16.43
2017-09-06T04:40:54.417Z,16.53
2017-09-06T04:41:34.999Z,16.49
2017-09-06T04:42:15.598Z,16.51
2017-09-06T04:42:56.164Z,16.5
2017-09-06T04:43:36.737Z,16.46
2017-09-06T04:44:17.331Z,16.43
2017-09-06T04:44:57.905Z,16.51
2017-09-06T04:45:38.662Z,16.5
2017-09-06T04:46:19.286Z,16.49
2017-09-06T04:46:59.872Z,16.47
2017-09-06T04:47:40.452Z,16.47
2017-09-06T04:48:21.040Z,16.47
2017-09-06T04:49:01.606Z,16.49
2017-09-06T04:49:42.205Z,16.47
2017-09-06T04:50:22.785Z,16.47
2017-09-06T04:51:03.360Z,16.49
2017-09-06T04:51:43.921Z,16.57
2017-09-06T04:52:24.508Z,16.51
2017-09-06T04:53:05.214Z,16.5
2017-09-06T04:53:45.831Z,16.53
2017-09-06T04:54:26.401Z,16.51
2017-09-06T04:55:07.194Z,16.5
2017-09-06T04:55:47.833Z,16.5
2017-09-06T04:56:28.556Z,16.5
2017-09-06T04:57:09.204Z,16.5
2017-09-06T04:57:49.833Z,16.49
2017-09-06T04:58:30.376Z,16.43
2017-09-06T04:59:10.963Z,16.51
2017-09-06T04:59:51.546Z,16.53
2017-09-06T05:00:32.120Z,16.57
2017-09-06T05:01:12.691Z,16.56
2017-09-06T05:01:53.282Z,16.56
2017-09-06T05:02:33.904Z,16.51
2017-09-06T05:03:14.502Z,16.49
2017-09-06T05:03:55.091Z,16.64
2017-09-06T05:04:35.667Z,16.54
2017-09-06T05:05:16.274Z,16.6
2017-09-06T05:05:56.854Z,16.54
2017-09-06T05:06:37.435Z,16.54
2017-09-06T05:07:18.008Z,16.51
2017-09-06T05:07:58.706Z,16.54
2017-09-06T05:08:39.299Z,16.51
2017-09-06T05:09:19.892Z,16.57
2017-09-06T05:10:00.463Z,16.53
2017-09-06T05:10:41.112Z,16.53
2017-09-06T05:11:21.699Z,16.53
2017-09-06T05:12:02.295Z,16.53
2017-09-06T05:12:43.711Z,16.46
2017-09-06T05:13:24.309Z,16.53
2017-09-06T05:14:04.887Z,16.56
2017-09-06T05:14:45.457Z,16.49
2017-09-06T05:15:26.026Z,16.49
2017-09-06T05:16:06.600Z,16.47
2017-09-06T05:16:47.166Z,16.56
2017-09-06T05:17:27.760Z,16.57
2017-09-06T05:18:08.330Z,16.54
2017-09-06T05:18:48.925Z,16.56
2017-09-06T05:19:29.900Z,16.53
2017-09-06T05:20:10.475Z,16.56
2017-09-06T05:20:51.083Z,16.57
2017-09-06T05:21:31.674Z,16.61
2017-09-06T05:22:12.250Z,16.57
2017-09-06T05:22:52.820Z,16.58
2017-09-06T05:23:33.416Z,16.6
2017-09-06T05:24:13.986Z,16.6
2017-09-06T05:24:54.598Z,16.6
2017-09-06T05:25:35.187Z,16.64
2017-09-06T05:26:15.778Z,16.65
2017-09-06T05:26:56.368Z,16.68
2017-09-06T05:27:36.952Z,16.56
2017-09-06T05:28:17.528Z,16.71
2017-09-06T05:28:58.123Z,16.61
2017-09-06T05:29:38.714Z,16.57
2017-09-06T05:30:19.285Z,16.6
2017-09-06T05:30:59.877Z,16.61
2017-09-06T05:31:40.457Z,16.64
2017-09-06T05:32:21.037Z,16.6
2017-09-06T05:33:01.610Z,16.58
2017-09-06T05:33:42.184Z,16.57
2017-09-06T05:34:22.762Z,16.66
2017-09-06T05:35:03.346Z,16.64
2017-09-06T05:35:43.931Z,16.61
2017-09-06T05:36:24.493Z,16.6
2017-09-06T05:37:05.088Z,16.6
2017-09-06T05:37:45.734Z,16.65
2017-09-06T05:38:26.275Z,16.61
2017-09-06T05:39:06.895Z,16.69
2017-09-06T05:39:47.482Z,16.68
2017-09-06T05:40:28.067Z,16.66
2017-09-06T05:41:08.642Z,16.74
2017-09-06T05:41:49.231Z,16.69
2017-09-06T05:42:29.781Z,16.69
2017-09-06T05:43:10.392Z,16.65
2017-09-06T05:43:50.958Z,16.66
2017-09-06T05:44:31.520Z,16.66
2017-09-06T05:45:12.091Z,16.69
2017-09-06T05:45:52.692Z,16.69
2017-09-06T05:46:33.265Z,16.72
2017-09-06T05:47:13.865Z,16.74
2017-09-06T05:47:54.468Z,16.75
2017-09-06T05:48:35.039Z,16.58
2017-09-06T05:49:15.622Z,16.58
2017-09-06T05:49:56.219Z,16.75
2017-09-06T05:50:36.784Z,16.65
2017-09-06T05:51:17.406Z,16.66
2017-09-06T05:51:58.026Z,16.66
2017-09-06T05:52:38.607Z,16.66
2017-09-06T05:53:19.171Z,16.75
2017-09-06T05:53:59.748Z,16.71
2017-09-06T05:54:40.334Z,16.74
2017-09-06T05:55:20.923Z,16.72
2017-09-06T05:56:01.498Z,16.72
2017-09-06T05:56:42.077Z,16.75
2017-09-06T05:57:22.664Z,16.78
2017-09-06T05:58:03.226Z,16.76
2017-09-06T05:58:43.807Z,16.74
2017-09-06T05:59:24.387Z,16.75
2017-09-06T06:00:04.966Z,16.79
2017-09-06T06:00:45.558Z,16.79
2017-09-06T06:01:26.159Z,16.75
2017-09-06T06:02:06.712Z,16.78
2017-09-06T06:02:47.275Z,16.79
2017-09-06T06:03:27.863Z,16.83
2017-09-06T06:04:09.415Z,16.81
2017-09-06T06:04:49.974Z,16.78
2017-09-06T06:05:30.567Z,16.79
2017-09-06T06:06:11.395Z,16.84
2017-09-06T06:06:51.978Z,16.83
2017-09-06T06:07:32.578Z,16.75
2017-09-06T06:08:13.142Z,16.71
2017-09-06T06:08:53.729Z,16.84
2017-09-06T06:09:34.374Z,16.74
2017-09-06T06:10:14.953Z,16.75
2017-09-06T06:10:55.553Z,16.83
2017-09-06T06:11:36.133Z,16.76
2017-09-06T06:12:16.706Z,16.79
2017-09-06T06:12:57.274Z,16.83
2017-09-06T06:13:37.873Z,16.74
2017-09-06T06:14:18.444Z,16.89
2017-09-06T06:14:59.020Z,16.79
2017-09-06T06:15:39.595Z,16.79
2017-09-06T06:16:20.176Z,16.79
2017-09-06T06:17:00.727Z,16.93
2017-09-06T06:17:41.306Z,16.83
2017-09-06T06:18:21.901Z,16.76
2017-09-06T06:19:02.542Z,16.83
2017-09-06T06:19:43.115Z,16.86
2017-09-06T06:20:23.729Z,16.84
2017-09-06T06:21:04.298Z,16.89
2017-09-06T06:21:44.923Z,16.87
2017-09-06T06:22:25.506Z,16.94
2017-09-06T06:23:06.076Z,16.96
2017-09-06T06:23:46.643Z,16.89
2017-09-06T06:24:27.265Z,16.78
2017-09-06T06:25:07.884Z,16.89
2017-09-06T06:25:48.471Z,16.83
2017-09-06T06:26:29.038Z,16.75
2017-09-06T06:27:09.625Z,16.86
2017-09-06T06:27:50.204Z,16.75
2017-09-06T06:28:30.776Z,16.86
2017-09-06T06:29:11.378Z,16.81
2017-09-06T06:29:51.957Z,16.86
2017-09-06T06:30:32.535Z,16.83
2017-09-06T06:31:13.114Z,16.89
2017-09-06T06:31:53.713Z,16.86
2017-09-06T06:32:34.303Z,16.86
2017-09-06T06:33:14.893Z,16.94
2017-09-06T06:33:55.508Z,16.89
2017-09-06T06:34:36.134Z,16.94
2017-09-06T06:35:16.706Z,16.89
2017-09-06T06:35:57.293Z,16.96
2017-09-06T06:36:37.893Z,16.97
2017-09-06T06:37:18.456Z,16.9
2017-09-06T06:37:59.048Z,16.94
2017-09-06T06:38:39.896Z,16.91
2017-09-06T06:39:20.482Z,16.97
2017-09-06T06:40:01.475Z,16.96
2017-09-06T06:40:42.064Z,16.93
2017-09-06T06:41:22.630Z,16.99
2017-09-06T06:42:03.211Z,16.96
2017-09-06T06:42:43.834Z,16.97
2017-09-06T06:43:24.415Z,16.96
2017-09-06T06:44:04.986Z,16.97
2017-09-06T06:44:45.588Z,16.96
2017-09-06T06:45:26.136Z,17.06
2017-09-06T06:46:06.714Z,16.99
2017-09-06T06:46:47.384Z,17.08
2017-09-06T06:47:27.944Z,16.99
2017-09-06T06:48:08.558Z,17.06
2017-09-06T06:48:49.153Z,17.02
2017-09-06T06:49:29.752Z,16.99
2017-09-06T06:50:10.452Z,17.06
2017-09-06T06:50:51.091Z,17.05
2017-09-06T06:51:31.647Z,16.97
2017-09-06T06:52:12.222Z,17.05
2017-09-06T06:52:52.828Z,17.02
2017-09-06T06:53:33.412Z,17.06
2017-09-06T06:54:14.025Z,17.04
2017-09-06T06:54:54.620Z,17.05
2017-09-06T06:55:35.211Z,17.09
2017-09-06T06:56:15.798Z,17.06
2017-09-06T06:56:56.375Z,17.01
2017-09-06T06:57:37.106Z,17.11
2017-09-06T06:58:17.677Z,17.05
2017-09-06T06:58:58.245Z,17.08
2017-09-06T06:59:38.846Z,17.15
2017-09-06T07:00:19.422Z,17.05
2017-09-06T07:01:00.024Z,17.08
2017-09-06T07:01:40.610Z,17.08
2017-09-06T07:02:21.911Z,17.11
2017-09-06T07:03:02.485Z,17.23
2017-09-06T07:03:43.244Z,17.12
2017-09-06T07:04:23.878Z,17.14
2017-09-06T07:05:04.444Z,17.06
2017-09-06T07:05:45.131Z,17.26
2017-09-06T07:06:25.711Z,17.27
2017-09-06T07:07:06.843Z,17.24
2017-09-06T07:07:47.430Z,17.11
2017-09-06T07:08:28.085Z,17.19
2017-09-06T07:09:08.671Z,17.23
2017-09-06T07:09:49.277Z,17.23
2017-09-06T07:10:29.814Z,17.22
2017-09-06T07:11:10.380Z,17.23
2017-09-06T07:11:51.036Z,17.16
2017-09-06T07:12:31.627Z,17.22
2017-09-06T07:13:12.221Z,17.16
2017-09-06T07:13:52.806Z,17.24
2017-09-06T07:14:33.379Z,17.23
2017-09-06T07:15:13.948Z,17.2
2017-09-06T07:15:54.590Z,17.14
2017-09-06T07:16:35.181Z,17.23
2017-09-06T07:17:15.794Z,17.31
2017-09-06T07:17:56.504Z,17.24
2017-09-06T07:18:37.080Z,17.29
2017-09-06T07:19:17.664Z,17.27
2017-09-06T07:19:58.240Z,17.36
2017-09-06T07:20:39.527Z,17.42
2017-09-06T07:21:20.094Z,17.31
2017-09-06T07:22:00.684Z,17.38
2017-09-06T07:22:41.275Z,17.34
2017-09-06T07:23:21.851Z,17.34
2017-09-06T07:24:02.447Z,17.34
2017-09-06T07:24:43.048Z,17.41
2017-09-06T07:25:23.630Z,17.38
2017-09-06T07:26:04.435Z,17.36
2017-09-06T07:26:45.074Z,17.42
2017-09-06T07:27:25.613Z,17.41
2017-09-06T07:28:06.260Z,17.39
2017-09-06T07:28:46.941Z,17.44
2017-09-06T07:29:27.638Z,17.42
2017-09-06T07:30:08.239Z,17.42
2017-09-06T07:30:48.809Z,17.48
2017-09-06T07:31:29.392Z,17.44
2017-09-06T07:32:09.971Z,17.42
2017-09-06T07:32:50.543Z,17.49
2017-09-06T07:33:31.116Z,17.44
2017-09-06T07:34:11.719Z,17.49
2017-09-06T07:34:52.307Z,17.45
2017-09-06T07:35:32.889Z,17.59
2017-09-06T07:36:13.558Z,17.46
2017-09-06T07:36:54.247Z,17.6
2017-09-06T07:37:34.791Z,17.6
2017-09-06T07:38:15.385Z,17.57
2017-09-06T07:38:55.957Z,17.57
2017-09-06T07:39:36.537Z,17.6
2017-09-06T07:40:17.121Z,17.57
2017-09-06T07:40:57.724Z,17.71
2017-09-06T07:41:38.311Z,17.64
2017-09-06T07:42:18.944Z,17.74
2017-09-06T07:42:59.555Z,17.67
2017-09-06T07:43:40.150Z,17.8
2017-09-06T07:44:20.783Z,17.82
2017-09-06T07:45:01.353Z,17.86
2017-09-06T07:45:41.984Z,17.82
2017-09-06T07:46:22.565Z,17.89
2017-09-06T07:47:03.204Z,17.86
2017-09-06T07:47:44.034Z,17.95
2017-09-06T07:48:24.604Z,17.87
2017-09-06T07:49:05.200Z,17.94
2017-09-06T07:49:45.777Z,18
2017-09-06T07:50:26.345Z,17.95
2017-09-06T07:51:07.131Z,17.95
2017-09-06T07:51:47.785Z,17.92
2017-09-06T07:52:28.448Z,17.97
2017-09-06T07:53:09.024Z,17.94
2017-09-06T07:53:49.601Z,17.9
2017-09-06T07:54:30.192Z,17.95
2017-09-06T07:55:10.794Z,17.94
2017-09-06T07:55:51.366Z,18.01
2017-09-06T07:56:31.978Z,17.94
2017-09-06T07:57:12.568Z,17.9
2017-09-06T07:57:53.146Z,17.9
2017-09-06T07:58:33.756Z,17.86
2017-09-06T07:59:14.324Z,17.98
2017-09-06T07:59:54.911Z,17.85
2017-09-06T08:00:35.484Z,17.92
2017-09-06T08:01:16.081Z,17.87
2017-09-06T08:01:56.687Z,17.89
2017-09-06T08:02:37.287Z,17.89
2017-09-06T08:03:17.857Z,17.86
2017-09-06T08:03:58.436Z,17.9
2017-09-06T08:04:39.060Z,17.9
2017-09-06T08:05:19.679Z,17.79
2017-09-06T08:06:00.433Z,17.86
2017-09-06T08:06:41.933Z,17.82
2017-09-06T08:07:22.661Z,17.79
2017-09-06T08:08:03.755Z,17.83
2017-09-06T08:08:44.343Z,17.89
2017-09-06T08:09:24.909Z,17.9
2017-09-06T08:10:05.499Z,17.92
2017-09-06T08:10:46.076Z,17.85
2017-09-06T08:11:26.728Z,17.83
2017-09-06T08:12:07.277Z,17.89
2017-09-06T08:12:47.886Z,17.79
2017-09-06T08:13:28.544Z,17.78
2017-09-06T08:14:09.092Z,17.83
2017-09-06T08:14:49.659Z,17.8
2017-09-06T08:15:30.269Z,17.78
2017-09-06T08:16:10.840Z,17.74
2017-09-06T08:16:51.732Z,17.67
2017-09-06T08:17:32.357Z,17.72
2017-09-06T08:18:12.922Z,17.64
2017-09-06T08:18:53.526Z,17.74
2017-09-06T08:19:34.132Z,17.67
2017-09-06T08:20:14.719Z,17.71
2017-09-06T08:20:55.287Z,17.64
2017-09-06T08:21:35.889Z,17.59
2017-09-06T08:22:16.502Z,17.6
2017-09-06T08:22:57.101Z,17.65
2017-09-06T08:23:37.719Z,17.59
2017-09-06T08:24:18.304Z,17.65
2017-09-06T08:24:58.907Z,17.54
2017-09-06T08:25:39.953Z,17.54
2017-09-06T08:26:20.570Z,17.59
2017-09-06T08:27:01.216Z,17.45
2017-09-06T08:27:41.805Z,17.45
2017-09-06T08:28:22.394Z,17.45
2017-09-06T08:29:02.997Z,17.45
2017-09-06T08:29:43.604Z,17.59
2017-09-06T08:30:24.221Z,17.46
2017-09-06T08:31:04.834Z,17.52
2017-09-06T08:31:45.455Z,17.48
2017-09-06T08:32:26.032Z,17.45
2017-09-06T08:33:06.616Z,17.45
2017-09-06T08:33:47.237Z,17.48
2017-09-06T08:34:27.828Z,17.41
2017-09-06T08:35:08.648Z,17.48
2017-09-06T08:35:49.509Z,17.49
2017-09-06T08:36:32.259Z,17.42
2017-09-06T08:37:13.066Z,17.41
2017-09-06T08:37:53.684Z,17.44
2017-09-06T08:38:34.304Z,17.44
2017-09-06T08:39:14.900Z,17.34
2017-09-06T08:39:55.671Z,17.38
2017-09-06T08:40:36.244Z,17.42
2017-09-06T08:41:16.820Z,17.38
2017-09-06T08:41:57.546Z,17.41
2017-09-06T08:42:38.203Z,17.39
2017-09-06T08:43:18.782Z,17.41
2017-09-06T08:43:59.384Z,17.38